LFAT Airport Information

Runway Information
Runway 13 Length 6070 ft width 131 ft
Elevation 19 ft Threshold ft Heading 133
Runway 31 Length 6070 ft Width 131 ft
Elevation 16 ft Threshold 492 ft Heading 313
Runway 06 Length 0 ft width 0 ft
Elevation 36 ft Threshold ft Heading 0
Runway 24 Length 0 ft Width 0 ft
Elevation 16 ft Threshold ft Heading 0
Airport Frequencies
Type APP Name LILLE APP Frequency 120.275 MHZ
Type ATIS Name ATIS Frequency 123.125 MHZ
Type GND Name GND Frequency 125.3 MHZ
Type TWR Name TWR Frequency 118.45 MHZ
Airport Navaids
Airport Weather Information & NOTAM
ADDS - METARS form results

(2258 UTC 04 December 2022)
Data provider http://aviationweather.gov/metar/data/
 
METAR text: LFAT 042230Z AUTO 08005KT 050V110 6000 OVC012 02/M00 Q1018
Conditions at: LFAT (LE TOUQUET/P. PL, FR) observed 2230 UTC 04 December 2022
Temperature: 2.0°C (36°F)
Dewpoint: 0.0°C (32°F) [RH = 87%]
Pressure (altimeter): 30.06 inches Hg (1018.0 mb)
Winds: from the E (80 degrees) at 6 MPH (5 knots; 2.6 m/s)
Visibility: 4 miles ( 6 km)
Ceiling: 1200 feet AGL
Clouds: overcast cloud deck at 1200 feet AGL
Weather: no significant weather observed at this time

METAR text: LFAT 042200Z AUTO 09006KT 060V120 7000 OVC013 02/M01 Q1017
Conditions at: LFAT (LE TOUQUET/P. PL, FR) observed 2200 UTC 04 December 2022
Temperature: 2.0°C (36°F)
Dewpoint: -1.0°C (30°F) [RH = 80%]
Pressure (altimeter): 30.03 inches Hg (1017.0 mb)
Winds: from the E (90 degrees) at 7 MPH (6 knots; 3.1 m/s)
Visibility: 4 miles ( 7 km)
Ceiling: 1300 feet AGL
Clouds: overcast cloud deck at 1300 feet AGL
Weather: no significant weather observed at this time

Forecast for: LFAT (LE TOUQUET/P. PL, FR)
Text: TAF LFAT 041400Z 0415/0424 07007KT 7000 OVC012
Forecast period: 1500 UTC 04 December 2022 to 0000 UTC 05 December 2022
Forecast type: FROM: standard forecast or significant change
Winds: from the ENE (70 degrees) at 8 MPH (7 knots; 3.6 m/s)
Visibility: 4 miles (7 km)
Ceiling: 1200 feet AGL
Clouds: overcast cloud deck at 1200 feet AGL
Weather: no significant weather forecast for this period
Text: TEMPO 0415/0424 OVC017
Forecast period: 1500 UTC 04 December 2022 to 0000 UTC 05 December 2022
Forecast type: TEMPORARY: The following changes expected for less than half the time period
Visibility: missing
Ceiling: 1700 feet AGL
Clouds: overcast cloud deck at 1700 feet AGL
Weather: no significant weather forecast for this period